createdAt,value
2019-04-11T00:00:39.604Z,78.20
2019-04-11T00:01:16.352Z,77.80
2019-04-11T00:01:52.851Z,78.10
2019-04-11T00:02:26.903Z,78.20
2019-04-11T00:03:00.599Z,77.80
2019-04-11T00:03:33.798Z,77.60
2019-04-11T00:04:06.700Z,77.80
2019-04-11T00:04:40.117Z,78.20
2019-04-11T00:05:12.964Z,78.70
2019-04-11T00:05:45.890Z,79.00
2019-04-11T00:06:19.268Z,79.10
2019-04-11T00:06:52.058Z,79.20
2019-04-11T00:07:24.705Z,79.50
2019-04-11T00:07:59.659Z,79.80
2019-04-11T00:08:34.156Z,80.10
2019-04-11T00:09:11.281Z,79.90
2019-04-11T00:09:44.876Z,79.70
2019-04-11T00:10:17.811Z,79.90
2019-04-11T00:10:50.373Z,79.90
2019-04-11T00:11:23.902Z,80.30
2019-04-11T00:11:57.581Z,80.10
2019-04-11T00:12:30.560Z,80.10
2019-04-11T00:13:14.244Z,80.30
2019-04-11T00:13:39.048Z,80.50
2019-04-11T00:14:13.728Z,80.80
2019-04-11T00:14:46.878Z,80.90
2019-04-11T00:15:20.311Z,80.70
2019-04-11T00:15:53.020Z,80.80
2019-04-11T00:16:25.886Z,80.90
2019-04-11T00:16:58.543Z,81.10
2019-04-11T00:17:32.128Z,81.10
2019-04-11T00:18:06.072Z,81.10
2019-04-11T00:18:38.997Z,81.10
2019-04-11T00:19:12.295Z,81.20
2019-04-11T00:19:45.417Z,81.20
2019-04-11T00:20:18.106Z,81.40
2019-04-11T00:20:51.320Z,80.90
2019-04-11T00:21:24.609Z,80.90
2019-04-11T00:21:57.329Z,81.10
2019-04-11T00:22:29.940Z,81.10
2019-04-11T00:23:02.422Z,80.90
2019-04-11T00:23:34.955Z,80.30
2019-04-11T00:24:07.527Z,80.10
2019-04-11T00:24:40.088Z,80.20
2019-04-11T00:25:13.596Z,79.50
2019-04-11T00:25:47.428Z,78.80
2019-04-11T00:26:20.247Z,78.40
2019-04-11T00:26:52.798Z,78.40
2019-04-11T00:27:26.721Z,78.30
2019-04-11T00:27:59.432Z,78.60
2019-04-11T00:28:32.001Z,79.40
2019-04-11T00:29:05.838Z,79.80
2019-04-11T00:29:38.875Z,80.50
2019-04-11T00:30:12.269Z,80.80
2019-04-11T00:30:44.844Z,80.60
2019-04-11T00:31:17.398Z,80.70
2019-04-11T00:31:49.944Z,81.00
2019-04-11T00:32:22.499Z,81.00
2019-04-11T00:32:56.053Z,80.40
2019-04-11T00:33:29.885Z,80.10
2019-04-11T00:34:02.866Z,80.20
2019-04-11T00:34:35.501Z,80.80
2019-04-11T00:35:09.172Z,81.70
2019-04-11T00:35:42.015Z,81.80
2019-04-11T00:36:14.553Z,82.40
2019-04-11T00:36:47.091Z,83.10
2019-04-11T00:37:19.635Z,83.40
2019-04-11T00:37:52.163Z,83.80
2019-04-11T00:38:25.675Z,83.20
2019-04-11T00:38:59.289Z,82.50
2019-04-11T00:39:32.022Z,82.50
2019-04-11T00:40:04.787Z,81.50
2019-04-11T00:40:37.462Z,81.50
2019-04-11T00:41:10.505Z,81.70
2019-04-11T00:41:43.157Z,82.00
2019-04-11T00:42:16.613Z,82.50
2019-04-11T00:42:49.182Z,82.70
2019-04-11T00:43:30.621Z,82.60
2019-04-11T00:43:56.698Z,82.50
2019-04-11T00:44:30.543Z,82.70
2019-04-11T00:45:03.505Z,83.40
2019-04-11T00:45:36.057Z,83.50
2019-04-11T00:46:09.846Z,83.70
2019-04-11T00:46:42.673Z,83.60
2019-04-11T00:47:15.315Z,83.60
2019-04-11T00:47:48.993Z,83.70
2019-04-11T00:48:21.789Z,83.50
2019-04-11T00:48:54.643Z,83.10
2019-04-11T00:49:27.218Z,82.80
2019-04-11T00:50:00.912Z,83.20
2019-04-11T00:50:35.016Z,83.20
2019-04-11T00:51:07.773Z,83.50
2019-04-11T00:51:40.460Z,83.30
2019-04-11T00:52:14.057Z,83.40
2019-04-11T00:52:47.594Z,83.50
2019-04-11T00:53:20.869Z,82.90
2019-04-11T00:53:54.135Z,83.20
2019-04-11T00:54:27.124Z,83.90
2019-04-11T00:54:59.654Z,83.20
2019-04-11T00:55:32.498Z,83.00
2019-04-11T00:56:08.173Z,82.60
2019-04-11T00:56:42.251Z,82.90
2019-04-11T00:57:14.973Z,83.30
2019-04-11T00:57:47.557Z,83.40
2019-04-11T00:58:21.285Z,82.80
2019-04-11T00:58:54.059Z,82.90
2019-04-11T00:59:26.747Z,83.20
2019-04-11T00:59:59.478Z,82.40
2019-04-11T01:00:33.256Z,81.90
2019-04-11T01:01:05.864Z,81.70
2019-04-11T01:01:38.809Z,81.70
2019-04-11T01:02:11.751Z,81.80
2019-04-11T01:02:45.341Z,82.50
2019-04-11T01:03:18.170Z,82.60
2019-04-11T01:03:51.578Z,82.00
2019-04-11T01:04:24.122Z,81.60
2019-04-11T01:04:57.139Z,81.90
2019-04-11T01:05:30.322Z,82.00
2019-04-11T01:06:03.709Z,81.90
2019-04-11T01:06:36.500Z,82.30
2019-04-11T01:07:09.241Z,82.80
2019-04-11T01:07:42.842Z,83.90
2019-04-11T01:08:15.720Z,84.40
2019-04-11T01:08:48.326Z,84.60
2019-04-11T01:09:21.123Z,84.50
2019-04-11T01:09:54.788Z,86.10
2019-04-11T01:10:27.487Z,87.20
2019-04-11T01:11:00.485Z,88.00
2019-04-11T01:11:34.147Z,87.90
2019-04-11T01:12:07.867Z,88.20
2019-04-11T01:12:40.815Z,88.40
2019-04-11T01:13:14.255Z,87.40
2019-04-11T01:13:52.389Z,86.80
2019-04-11T01:14:23.647Z,87.30
2019-04-11T01:14:57.300Z,87.50
2019-04-11T01:15:31.388Z,86.80
2019-04-11T01:16:11.201Z,86.50
2019-04-11T01:16:52.732Z,86.40
2019-04-11T01:17:25.435Z,86.50
2019-04-11T01:17:58.262Z,86.30
2019-04-11T01:18:31.126Z,86.10
2019-04-11T01:19:04.633Z,86.30
2019-04-11T01:19:38.494Z,86.40
2019-04-11T01:20:11.894Z,86.50
2019-04-11T01:20:44.450Z,86.60
2019-04-11T01:21:17.906Z,87.10
2019-04-11T01:21:50.952Z,87.50
2019-04-11T01:22:24.395Z,88.00
2019-04-11T01:22:58.414Z,88.30
2019-04-11T01:23:31.372Z,88.50
2019-04-11T01:24:04.123Z,87.70
2019-04-11T01:24:36.718Z,87.10
2019-04-11T01:25:10.451Z,86.70
2019-04-11T01:25:44.336Z,86.30
2019-04-11T01:26:17.033Z,85.80
2019-04-11T01:26:49.726Z,85.40
2019-04-11T01:27:23.722Z,85.50
2019-04-11T01:27:56.456Z,85.50
2019-04-11T01:28:29.507Z,85.90
2019-04-11T01:29:03.021Z,86.30
2019-04-11T01:29:36.045Z,86.70
2019-04-11T01:30:11.684Z,87.10
2019-04-11T01:30:51.690Z,87.70
2019-04-11T01:31:25.286Z,88.70
2019-04-11T01:32:00.187Z,88.70
2019-04-11T01:32:32.828Z,88.70
2019-04-11T01:33:06.565Z,88.80
2019-04-11T01:33:40.168Z,88.00
2019-04-11T01:34:12.879Z,87.00
2019-04-11T01:34:45.674Z,87.20
2019-04-11T01:35:19.294Z,87.70
2019-04-11T01:35:51.915Z,88.10
2019-04-11T01:36:24.457Z,88.60
2019-04-11T01:36:57.567Z,88.90
2019-04-11T01:37:31.433Z,89.00
2019-04-11T01:38:04.070Z,89.00
2019-04-11T01:38:41.525Z,89.80
2019-04-11T01:39:39.363Z,90.30
2019-04-11T01:40:11.923Z,90.30
2019-04-11T01:40:45.581Z,90.20
2019-04-11T01:41:18.403Z,90.10
2019-04-11T01:41:51.005Z,90.10
2019-04-11T01:42:24.943Z,90.30
2019-04-11T01:42:58.168Z,90.60
2019-04-11T01:43:32.369Z,90.50
2019-04-11T01:44:07.151Z,90.60
2019-04-11T01:44:40.949Z,90.50
2019-04-11T01:45:15.463Z,90.50
2019-04-11T01:45:48.020Z,90.40
2019-04-11T01:46:20.563Z,90.30
2019-04-11T01:46:54.159Z,90.30
2019-04-11T01:47:53.452Z,90.30
2019-04-11T01:48:58.335Z,90.60
2019-04-11T01:49:34.966Z,90.00
2019-04-11T01:50:08.444Z,89.80
2019-04-11T01:50:41.248Z,89.80
2019-04-11T01:51:13.854Z,90.00
2019-04-11T01:51:47.576Z,90.20
2019-04-11T01:52:20.513Z,90.60
2019-04-11T01:52:53.060Z,91.00
2019-04-11T01:53:26.767Z,91.30
2019-04-11T01:53:59.798Z,91.10
2019-04-11T01:54:32.263Z,91.40
2019-04-11T01:55:05.475Z,91.50
2019-04-11T01:55:38.776Z,91.70
2019-04-11T01:56:12.765Z,91.70
2019-04-11T01:56:45.473Z,91.40
2019-04-11T01:57:18.072Z,91.10
2019-04-11T01:57:50.549Z,90.90
2019-04-11T01:58:23.091Z,90.30
2019-04-11T01:58:57.188Z,90.00
2019-04-11T01:59:31.251Z,89.50
2019-04-11T02:00:06.021Z,89.60
2019-04-11T02:00:45.841Z,89.20
2019-04-11T02:01:31.329Z,88.80
2019-04-11T02:02:11.784Z,88.90
2019-04-11T02:02:48.648Z,89.40
2019-04-11T02:03:45.615Z,90.10
2019-04-11T02:04:32.471Z,90.40
2019-04-11T02:05:27.216Z,90.80
2019-04-11T02:06:01.261Z,91.50
2019-04-11T02:06:34.163Z,92.20
2019-04-11T02:07:07.244Z,92.30
2019-04-11T02:07:40.239Z,92.40
2019-04-11T02:08:13.283Z,92.30
2019-04-11T02:08:47.168Z,92.10
2019-04-11T02:09:20.021Z,92.00
2019-04-11T02:09:52.685Z,91.90
2019-04-11T02:10:26.481Z,91.80
2019-04-11T02:10:59.429Z,91.60
2019-04-11T02:11:32.089Z,91.80
2019-04-11T02:12:05.799Z,92.00
2019-04-11T02:12:39.376Z,92.00
2019-04-11T02:13:12.088Z,92.20
2019-04-11T02:13:45.104Z,92.20
2019-04-11T02:14:19.501Z,92.20
2019-04-11T02:14:52.199Z,92.20
2019-04-11T02:15:26.083Z,92.20
2019-04-11T02:16:00.358Z,92.10
2019-04-11T02:16:33.305Z,92.10
2019-04-11T02:17:06.383Z,92.20
2019-04-11T02:17:39.139Z,92.20
2019-04-11T02:18:13.044Z,92.40
2019-04-11T02:18:45.777Z,92.60
2019-04-11T02:19:18.654Z,92.80
2019-04-11T02:19:52.327Z,92.80
2019-04-11T02:20:25.311Z,92.90
2019-04-11T02:20:57.854Z,93.10
2019-04-11T02:21:30.581Z,93.20
2019-04-11T02:22:16.112Z,93.30
2019-04-11T02:22:52.834Z,93.20
2019-04-11T02:23:32.191Z,93.20
2019-04-11T02:24:28.002Z,93.20
2019-04-11T02:25:06.608Z,93.30
2019-04-11T02:25:50.847Z,93.30
2019-04-11T02:26:27.262Z,93.30
2019-04-11T02:27:08.770Z,93.40
2019-04-11T02:27:42.269Z,93.20
2019-04-11T02:28:16.900Z,93.10
2019-04-11T02:28:49.780Z,93.40
2019-04-11T02:29:23.479Z,93.50
2019-04-11T02:29:56.815Z,93.80
2019-04-11T02:30:30.701Z,93.60
2019-04-11T02:31:04.996Z,93.60
2019-04-11T02:31:38.997Z,93.70
2019-04-11T02:32:12.772Z,93.90
2019-04-11T02:32:47.877Z,94.10
2019-04-11T02:33:21.820Z,94.30
2019-04-11T02:33:55.346Z,94.20
2019-04-11T02:34:29.663Z,94.10
2019-04-11T02:35:04.627Z,94.00
2019-04-11T02:35:37.367Z,94.00
2019-04-11T02:36:12.233Z,93.90
2019-04-11T02:36:45.030Z,93.90
2019-04-11T02:37:19.752Z,94.00
2019-04-11T02:37:52.420Z,94.00
2019-04-11T02:38:24.961Z,94.10
2019-04-11T02:39:01.480Z,94.20
2019-04-11T02:39:33.775Z,93.90
2019-04-11T02:40:07.583Z,93.90
2019-04-11T02:40:41.239Z,94.00
2019-04-11T02:41:17.115Z,94.00
2019-04-11T02:41:50.781Z,94.10
2019-04-11T02:42:25.405Z,94.10
2019-04-11T02:42:59.418Z,94.10
2019-04-11T02:43:34.071Z,94.20
2019-04-11T02:44:28.654Z,94.00
2019-04-11T02:44:59.197Z,94.00
2019-04-11T02:45:27.850Z,94.00
2019-04-11T02:46:01.800Z,94.00
2019-04-11T02:46:36.991Z,94.00
2019-04-11T02:47:05.227Z,94.20
2019-04-11T02:47:36.882Z,94.30
2019-04-11T02:48:11.233Z,94.40
2019-04-11T02:48:44.948Z,94.70
2019-04-11T02:49:19.293Z,95.00
2019-04-11T02:49:52.350Z,94.90
2019-04-11T02:50:26.615Z,94.90
2019-04-11T02:51:00.882Z,94.70
2019-04-11T02:51:34.524Z,94.80
2019-04-11T02:52:09.325Z,94.80
2019-04-11T02:52:43.893Z,94.70
2019-04-11T02:53:16.955Z,94.60
2019-04-11T02:53:51.809Z,94.80
2019-04-11T02:54:26.504Z,94.70
2019-04-11T02:55:00.711Z,94.70
2019-04-11T02:55:35.633Z,94.80
2019-04-11T02:56:10.785Z,94.80
2019-04-11T02:56:45.089Z,95.00
2019-04-11T02:57:18.399Z,95.20
2019-04-11T02:57:51.130Z,95.10
2019-04-11T02:58:25.219Z,94.90
2019-04-11T02:58:59.931Z,94.90
2019-04-11T02:59:34.366Z,95.00
2019-04-11T03:00:08.623Z,95.00
2019-04-11T03:00:44.606Z,95.10
2019-04-11T03:01:17.852Z,95.20
2019-04-11T03:01:50.947Z,95.20
2019-04-11T03:02:26.576Z,95.30
2019-04-11T03:02:59.853Z,95.50
2019-04-11T03:03:34.265Z,95.80
2019-04-11T03:04:07.555Z,95.90
2019-04-11T03:04:41.793Z,96.10
2019-04-11T03:05:16.326Z,96.70
2019-04-11T03:05:50.817Z,96.90
2019-04-11T03:06:25.846Z,96.90
2019-04-11T03:07:00.113Z,96.80
2019-04-11T03:07:34.075Z,96.70
2019-04-11T03:08:11.161Z,96.70
2019-04-11T03:08:42.733Z,96.70
2019-04-11T03:09:17.558Z,96.80
2019-04-11T03:09:51.055Z,97.00
2019-04-11T03:10:24.903Z,97.40
2019-04-11T03:10:59.386Z,97.30
2019-04-11T03:11:32.607Z,97.30
2019-04-11T03:12:07.420Z,97.20
2019-04-11T03:12:40.571Z,97.10
2019-04-11T03:13:13.348Z,97.00
2019-04-11T03:13:50.462Z,97.00
2019-04-11T03:14:23.495Z,97.00
2019-04-11T03:15:11.943Z,97.00
2019-04-11T03:15:43.116Z,97.50
2019-04-11T03:16:23.868Z,97.30
2019-04-11T03:16:53.394Z,97.30
2019-04-11T03:17:21.258Z,97.10
2019-04-11T03:17:54.882Z,97.10
2019-04-11T03:18:40.672Z,97.00
2019-04-11T03:19:13.284Z,96.90
2019-04-11T03:19:44.009Z,97.00
2019-04-11T03:20:15.511Z,97.00
2019-04-11T03:20:48.085Z,97.10
2019-04-11T03:21:21.603Z,97.20
2019-04-11T03:21:52.368Z,97.30
2019-04-11T03:22:26.942Z,97.20
2019-04-11T03:23:04.904Z,97.30
2019-04-11T03:23:35.478Z,97.20
2019-04-11T03:24:10.791Z,97.10
2019-04-11T03:24:43.470Z,97.00
2019-04-11T03:25:17.527Z,97.10
2019-04-11T03:25:52.163Z,97.10
2019-04-11T03:26:25.070Z,97.20
2019-04-11T03:27:02.218Z,97.20
2019-04-11T03:27:34.897Z,97.10
2019-04-11T03:28:14.065Z,97.10
2019-04-11T03:28:46.274Z,96.90
2019-04-11T03:29:17.781Z,96.80
2019-04-11T03:29:51.611Z,97.00
2019-04-11T03:30:44.765Z,97.20
2019-04-11T03:31:33.194Z,97.40
2019-04-11T03:32:13.320Z,97.50
2019-04-11T03:32:49.055Z,97.50
2019-04-11T03:34:13.033Z,97.20
2019-04-11T03:36:00.250Z,97.30
2019-04-11T03:37:19.490Z,97.20
2019-04-11T03:37:49.962Z,97.20
2019-04-11T03:38:24.687Z,97.40
2019-04-11T03:38:55.079Z,97.60
2019-04-11T03:39:27.720Z,97.70
2019-04-11T03:39:59.565Z,97.90
2019-04-11T03:40:38.488Z,98.00
2019-04-11T03:41:10.265Z,98.10
2019-04-11T03:41:50.719Z,98.20
2019-04-11T03:42:16.933Z,98.50
2019-04-11T03:42:50.528Z,98.80
2019-04-11T03:43:25.386Z,98.90
2019-04-11T03:43:57.087Z,98.70
2019-04-11T03:44:26.641Z,98.50
2019-04-11T03:45:19.104Z,98.20
2019-04-11T03:45:47.949Z,98.20
2019-04-11T03:46:24.904Z,98.20
2019-04-11T03:46:54.335Z,98.20
2019-04-11T03:47:31.072Z,97.90
2019-04-11T03:48:02.530Z,97.60
2019-04-11T03:48:36.794Z,97.60
2019-04-11T03:49:06.103Z,97.70
2019-04-11T03:49:43.238Z,97.60
2019-04-11T03:50:12.746Z,97.40
2019-04-11T03:50:42.499Z,97.50
2019-04-11T03:51:17.976Z,97.60
2019-04-11T03:51:50.718Z,97.70
2019-04-11T03:52:25.272Z,97.80
2019-04-11T03:53:01.354Z,97.80
2019-04-11T03:53:34.802Z,97.50
2019-04-11T03:54:09.740Z,97.40
2019-04-11T03:54:42.837Z,97.40
2019-04-11T03:55:15.771Z,97.20
2019-04-11T03:55:49.461Z,97.30
2019-04-11T03:56:22.468Z,97.40
2019-04-11T03:56:57.036Z,97.40
2019-04-11T03:57:29.988Z,97.50
2019-04-11T03:58:03.797Z,97.50
2019-04-11T03:58:37.202Z,97.60
2019-04-11T03:59:12.383Z,97.90
2019-04-11T03:59:45.811Z,98.00
2019-04-11T04:00:19.334Z,98.00
2019-04-11T04:00:53.437Z,98.10
2019-04-11T04:01:26.983Z,98.20
2019-04-11T04:02:00.105Z,98.20
2019-04-11T04:02:34.723Z,98.30
2019-04-11T04:03:09.248Z,98.20
2019-04-11T04:03:42.624Z,98.30
2019-04-11T04:04:19.247Z,98.50
2019-04-11T04:04:51.383Z,98.50
2019-04-11T04:05:26.451Z,98.50
2019-04-11T04:06:01.686Z,98.40
2019-04-11T04:06:33.804Z,98.50
2019-04-11T04:07:07.345Z,98.50
2019-04-11T04:07:41.462Z,98.60
2019-04-11T04:08:13.983Z,98.90
2019-04-11T04:08:46.730Z,98.80
2019-04-11T04:09:20.958Z,98.80
2019-04-11T04:09:54.378Z,99.00
2019-04-11T04:10:27.922Z,99.00
2019-04-11T04:11:06.230Z,98.90
2019-04-11T04:11:42.765Z,98.90
2019-04-11T04:12:16.250Z,98.90
2019-04-11T04:12:49.005Z,99.00
2019-04-11T04:13:23.213Z,99.00
2019-04-11T04:14:12.648Z,99.00
2019-04-11T04:14:53.999Z,99.00
2019-04-11T04:15:59.764Z,99.10
2019-04-11T04:16:34.240Z,99.00
2019-04-11T04:17:17.056Z,98.90
2019-04-11T04:18:05.896Z,99.00
2019-04-11T04:19:09.683Z,99.00
2019-04-11T04:19:54.304Z,98.80
2019-04-11T04:20:46.109Z,99.00
2019-04-11T04:21:31.201Z,99.30
2019-04-11T04:22:08.856Z,99.00
2019-04-11T04:22:50.072Z,98.90
2019-04-11T04:23:27.191Z,99.10
2019-04-11T04:24:02.196Z,99.00
2019-04-11T04:24:39.337Z,99.00
2019-04-11T04:25:10.282Z,99.10
2019-04-11T04:25:46.714Z,99.20
2019-04-11T04:26:19.208Z,99.00
2019-04-11T04:26:54.637Z,99.00
2019-04-11T04:27:28.110Z,99.00
2019-04-11T04:28:00.992Z,99.00
2019-04-11T04:28:35.818Z,99.10
2019-04-11T04:29:11.369Z,99.10
2019-04-11T04:29:47.353Z,99.00
2019-04-11T04:30:20.371Z,99.00
2019-04-11T04:30:53.814Z,98.90
2019-04-11T04:31:28.540Z,99.10
2019-04-11T04:32:02.905Z,99.20
2019-04-11T04:32:36.318Z,99.10
2019-04-11T04:33:10.710Z,99.20
2019-04-11T04:33:45.335Z,99.30
2019-04-11T04:34:19.588Z,99.20
2019-04-11T04:34:53.256Z,99.20
2019-04-11T04:35:27.736Z,99.20
2019-04-11T04:36:02.414Z,98.80
2019-04-11T04:36:35.608Z,98.60
2019-04-11T04:37:08.743Z,98.70
2019-04-11T04:37:43.361Z,99.00
2019-04-11T04:38:16.628Z,99.10
2019-04-11T04:38:49.420Z,99.00
2019-04-11T04:39:22.846Z,99.00
2019-04-11T04:40:17.959Z,99.00
2019-04-11T04:40:49.579Z,99.10
2019-04-11T04:41:21.162Z,99.10
2019-04-11T04:41:53.464Z,99.20
2019-04-11T04:42:27.218Z,99.40
2019-04-11T04:42:56.233Z,99.50
2019-04-11T04:43:29.477Z,99.50
2019-04-11T04:44:04.302Z,99.50
2019-04-11T04:44:37.979Z,99.70
2019-04-11T04:45:13.753Z,99.70
2019-04-11T04:46:03.378Z,99.80
2019-04-11T04:46:34.677Z,99.80
2019-04-11T04:47:08.043Z,99.80
2019-04-11T04:47:36.490Z,99.80
2019-04-11T04:48:10.237Z,99.70
2019-04-11T04:48:38.220Z,99.70
2019-04-11T04:49:13.234Z,99.70
2019-04-11T04:49:46.021Z,99.60
2019-04-11T04:50:20.273Z,99.60
2019-04-11T04:50:56.762Z,99.60
2019-04-11T04:51:28.862Z,99.60
2019-04-11T04:52:03.843Z,99.60
2019-04-11T04:52:37.985Z,99.50
2019-04-11T04:53:11.165Z,99.60
2019-04-11T04:53:45.215Z,99.90
2019-04-11T04:54:19.896Z,99.90
2019-04-11T04:54:53.350Z,99.90
2019-04-11T04:55:28.546Z,99.90
2019-04-11T04:56:02.664Z,99.90
2019-04-11T04:56:36.926Z,99.90
2019-04-11T04:57:12.853Z,99.90
2019-04-11T04:57:44.965Z,99.90
2019-04-11T04:58:20.194Z,99.90
2019-04-11T04:58:54.057Z,99.90
2019-04-11T04:59:28.130Z,99.90
2019-04-11T05:00:02.653Z,99.90
2019-04-11T05:00:35.504Z,99.90
2019-04-11T05:01:08.056Z,99.90
2019-04-11T05:01:41.720Z,99.90
2019-04-11T05:02:15.335Z,99.90
2019-04-11T05:02:48.079Z,99.90
2019-04-11T05:03:22.259Z,99.90
2019-04-11T05:03:56.400Z,99.90
2019-04-11T05:04:29.710Z,99.90
2019-04-11T05:05:04.252Z,99.50
2019-04-11T05:05:38.311Z,99.40
2019-04-11T05:06:11.962Z,99.40
2019-04-11T05:06:48.111Z,99.40
2019-04-11T05:07:19.429Z,99.70
2019-04-11T05:07:52.190Z,99.90
2019-04-11T05:08:26.975Z,99.90
2019-04-11T05:09:00.201Z,99.90
2019-04-11T05:09:33.994Z,99.80
2019-04-11T05:10:08.660Z,99.90
2019-04-11T05:10:41.318Z,99.90
2019-04-11T05:11:14.108Z,99.30
2019-04-11T05:11:46.789Z,98.60
2019-04-11T05:12:20.586Z,98.20
2019-04-11T05:12:54.802Z,98.60
2019-04-11T05:13:27.984Z,98.10
2019-04-11T05:14:00.928Z,97.10
2019-04-11T05:14:35.035Z,95.20
2019-04-11T05:15:08.023Z,94.20
2019-04-11T05:15:42.287Z,93.40
2019-04-11T05:16:17.867Z,92.30
2019-04-11T05:16:50.439Z,90.70
2019-04-11T05:17:23.306Z,88.20
2019-04-11T05:17:57.706Z,85.30
2019-04-11T05:18:30.580Z,83.40
2019-04-11T05:19:04.393Z,78.90
2019-04-11T05:19:38.267Z,75.70
2019-04-11T05:20:11.962Z,72.50
2019-04-11T05:20:44.622Z,69.80
2019-04-11T05:21:17.162Z,67.20
2019-04-11T05:21:50.167Z,65.70
2019-04-11T05:22:22.711Z,64.40
2019-04-11T05:22:55.902Z,63.70
2019-04-11T05:23:29.705Z,61.40
2019-04-11T05:24:04.056Z,59.70
2019-04-11T05:24:36.887Z,58.70
2019-04-11T05:25:10.628Z,57.30
2019-04-11T05:25:44.560Z,56.60
2019-04-11T05:26:17.629Z,56.20
2019-04-11T05:26:50.460Z,55.40
2019-04-11T05:27:23.659Z,54.60
2019-04-11T05:27:56.195Z,54.30
2019-04-11T05:28:29.814Z,54.10
2019-04-11T05:29:02.914Z,52.10
2019-04-11T05:29:35.698Z,51.70
2019-04-11T05:30:09.377Z,51.00
2019-04-11T05:30:42.128Z,50.30
2019-04-11T05:31:14.645Z,50.50
2019-04-11T05:31:47.213Z,50.20
2019-04-11T05:32:19.962Z,50.20
2019-04-11T05:32:53.442Z,49.20
2019-04-11T05:33:27.270Z,48.40
2019-04-11T05:33:59.998Z,48.10
2019-04-11T05:34:32.972Z,47.40
2019-04-11T05:35:06.915Z,46.60
2019-04-11T05:35:39.949Z,45.90
2019-04-11T05:36:12.503Z,45.30
2019-04-11T05:36:45.459Z,44.90
2019-04-11T05:37:18.631Z,43.70
2019-04-11T05:37:51.481Z,43.90
2019-04-11T05:38:25.132Z,43.50
2019-04-11T05:38:58.241Z,43.20
2019-04-11T05:39:31.692Z,43.40
2019-04-11T05:40:05.236Z,43.50
2019-04-11T05:40:37.892Z,43.30
2019-04-11T05:41:12.299Z,43.30
2019-04-11T05:41:46.789Z,43.20
2019-04-11T05:42:22.635Z,43.00
2019-04-11T05:42:55.727Z,42.80
2019-04-11T05:43:31.919Z,43.10
2019-04-11T05:44:07.667Z,43.10
2019-04-11T05:44:38.102Z,42.90
2019-04-11T05:45:16.985Z,43.10
2019-04-11T05:45:45.896Z,42.50
2019-04-11T05:46:31.034Z,42.70
2019-04-11T05:46:58.718Z,42.30
2019-04-11T05:47:28.087Z,42.70
2019-04-11T05:48:01.616Z,42.80
2019-04-11T05:48:57.953Z,43.10
2019-04-11T05:49:46.545Z,43.10
2019-04-11T05:50:26.381Z,44.00
2019-04-11T05:51:00.426Z,43.90
2019-04-11T05:51:39.981Z,43.70
2019-04-11T05:52:08.431Z,43.50
2019-04-11T05:52:42.013Z,43.20
2019-04-11T05:53:15.739Z,43.00
2019-04-11T05:53:51.322Z,42.90
2019-04-11T05:54:23.876Z,43.40
2019-04-11T05:55:00.616Z,43.80
2019-04-11T05:55:41.373Z,43.80
2019-04-11T05:56:13.946Z,42.90
2019-04-11T05:56:52.049Z,43.20
2019-04-11T05:57:24.435Z,43.00
2019-04-11T05:57:57.244Z,42.90
2019-04-11T05:58:30.353Z,42.90
2019-04-11T05:59:23.946Z,43.50
2019-04-11T05:59:57.774Z,43.60
2019-04-11T06:00:57.856Z,43.40
2019-04-11T06:01:34.597Z,43.10
2019-04-11T06:02:17.175Z,43.30
2019-04-11T06:02:54.277Z,43.50
2019-04-11T06:03:28.141Z,43.60
2019-04-11T06:04:05.963Z,43.80
2019-04-11T06:04:49.389Z,43.50
2019-04-11T06:05:31.823Z,43.20
2019-04-11T06:06:24.668Z,44.00
2019-04-11T06:07:03.274Z,43.00
2019-04-11T06:07:46.210Z,43.20
2019-04-11T06:08:22.653Z,43.60
2019-04-11T06:08:54.215Z,44.10
2019-04-11T06:09:33.786Z,44.20
2019-04-11T06:10:10.143Z,43.10
2019-04-11T06:11:04.259Z,43.10
2019-04-11T06:12:14.603Z,43.60
2019-04-11T06:13:25.012Z,43.20
2019-04-11T06:14:13.116Z,43.10
2019-04-11T06:14:51.942Z,43.10
2019-04-11T06:15:29.533Z,43.30
2019-04-11T06:16:02.961Z,44.70
2019-04-11T06:16:43.537Z,45.10
2019-04-11T06:17:14.701Z,45.70
2019-04-11T06:17:48.855Z,45.20
2019-04-11T06:18:48.121Z,46.40
2019-04-11T06:19:29.023Z,46.90
2019-04-11T06:20:17.812Z,49.00
2019-04-11T06:20:51.928Z,49.60
2019-04-11T06:21:34.042Z,50.50
2019-04-11T06:22:08.692Z,51.10
2019-04-11T06:22:56.901Z,51.80
2019-04-11T06:23:49.859Z,51.70
2019-04-11T06:24:36.521Z,52.30
2019-04-11T06:25:33.289Z,52.90
2019-04-11T06:26:32.411Z,53.80
2019-04-11T06:27:14.263Z,54.90
2019-04-11T06:27:58.298Z,55.40
2019-04-11T06:28:31.607Z,55.50
2019-04-11T06:29:19.310Z,55.00
2019-04-11T06:29:57.198Z,55.50
2019-04-11T06:30:55.377Z,56.60
2019-04-11T06:31:47.433Z,57.00
2019-04-11T06:32:38.418Z,57.80
2019-04-11T06:33:14.848Z,58.10
2019-04-11T06:33:54.700Z,57.80
2019-04-11T06:34:28.479Z,58.10
2019-04-11T06:35:06.105Z,58.60
2019-04-11T06:36:02.080Z,58.90
2019-04-11T06:36:52.947Z,58.90
2019-04-11T06:37:43.774Z,58.90
2019-04-11T06:38:34.557Z,59.50
2019-04-11T06:39:35.792Z,59.10
2019-04-11T06:40:18.724Z,60.30
2019-04-11T06:40:59.994Z,61.30
2019-04-11T06:41:44.918Z,60.90
2019-04-11T06:42:45.800Z,60.70
2019-04-11T06:43:28.211Z,60.90
2019-04-11T06:44:09.599Z,60.20
2019-04-11T06:45:17.555Z,60.40
2019-04-11T06:46:21.139Z,60.90
2019-04-11T06:47:13.175Z,61.40
2019-04-11T06:48:13.569Z,60.70
2019-04-11T06:49:02.341Z,60.70
2019-04-11T06:49:58.604Z,60.70
2019-04-11T06:50:37.594Z,61.10
2019-04-11T06:51:28.708Z,61.40
2019-04-11T06:52:04.336Z,61.90
2019-04-11T06:52:37.459Z,62.40
2019-04-11T06:53:11.813Z,62.40
2019-04-11T06:54:04.349Z,61.90
2019-04-11T06:54:46.025Z,61.30
2019-04-11T06:55:36.969Z,63.60
2019-04-11T06:56:23.300Z,64.40
2019-04-11T06:56:57.213Z,64.80
2019-04-11T06:57:30.297Z,64.20
2019-04-11T06:58:07.755Z,63.30
2019-04-11T06:58:44.293Z,63.00
2019-04-11T06:59:26.525Z,62.50
2019-04-11T06:59:59.468Z,62.30
2019-04-11T07:00:33.362Z,62.60
2019-04-11T07:01:11.883Z,62.80
2019-04-11T07:01:45.436Z,63.10
2019-04-11T07:02:21.371Z,63.30
2019-04-11T07:02:55.204Z,63.00
2019-04-11T07:03:32.427Z,62.60
2019-04-11T07:04:13.496Z,62.90
2019-04-11T07:04:51.834Z,63.40
2019-04-11T07:05:26.662Z,63.80
2019-04-11T07:06:02.840Z,64.50
2019-04-11T07:06:37.910Z,64.20
2019-04-11T07:07:11.398Z,64.30
2019-04-11T07:07:48.371Z,64.50
2019-04-11T07:08:25.104Z,64.80
2019-04-11T07:09:17.669Z,64.80
2019-04-11T07:09:55.659Z,65.00
2019-04-11T07:10:34.639Z,65.10
2019-04-11T07:11:09.394Z,65.00
2019-04-11T07:11:48.500Z,65.40
2019-04-11T07:12:26.557Z,65.20
2019-04-11T07:13:09.535Z,64.30
2019-04-11T07:13:49.716Z,64.60
2019-04-11T07:14:43.216Z,65.40
2019-04-11T07:15:37.707Z,65.40
2019-04-11T07:16:11.279Z,64.40
2019-04-11T07:17:07.189Z,63.60
2019-04-11T07:17:56.721Z,63.90
2019-04-11T07:18:32.135Z,63.20
2019-04-11T07:19:30.739Z,63.10
2019-04-11T07:20:25.020Z,63.00
2019-04-11T07:21:02.906Z,64.80
2019-04-11T07:21:36.478Z,64.50
2019-04-11T07:22:28.503Z,64.00
2019-04-11T07:23:20.101Z,64.20
2019-04-11T07:24:11.804Z,64.80
2019-04-11T07:25:04.014Z,65.00
2019-04-11T07:25:51.759Z,65.30
2019-04-11T07:26:30.474Z,65.00
2019-04-11T07:27:11.610Z,65.50
2019-04-11T07:27:57.844Z,65.20
2019-04-11T07:28:43.847Z,65.20
2019-04-11T07:29:34.717Z,64.60
2019-04-11T07:30:39.615Z,64.30
2019-04-11T07:31:30.314Z,63.20
2019-04-11T07:32:25.610Z,63.50
2019-04-11T07:33:12.922Z,63.30
2019-04-11T07:34:03.816Z,62.40
2019-04-11T07:34:56.435Z,63.20
2019-04-11T07:35:47.763Z,62.50
2019-04-11T07:36:40.441Z,63.20
2019-04-11T07:37:49.177Z,63.10
2019-04-11T07:38:29.844Z,63.90
2019-04-11T07:39:12.848Z,64.30
2019-04-11T07:40:24.163Z,64.00
2019-04-11T07:41:34.843Z,64.50
2019-04-11T07:42:26.566Z,64.00
2019-04-11T07:43:27.446Z,62.20
2019-04-11T07:44:00.755Z,63.50
2019-04-11T07:44:34.085Z,62.80
2019-04-11T07:45:13.046Z,63.00
2019-04-11T07:46:04.819Z,63.20
2019-04-11T07:46:49.536Z,63.80
2019-04-11T07:47:35.165Z,63.20
2019-04-11T07:48:15.134Z,62.20
2019-04-11T07:48:47.950Z,61.60
2019-04-11T07:49:25.067Z,61.90
2019-04-11T07:50:00.045Z,62.20
2019-04-11T07:50:33.302Z,62.20
2019-04-11T07:51:16.007Z,61.60
2019-04-11T07:51:53.279Z,60.30
2019-04-11T07:52:27.237Z,59.20
2019-04-11T07:53:02.960Z,58.50
2019-04-11T07:53:39.357Z,58.40